Latest Weather Observations for Kingscote

IDS60801

Issued at 10:32 am CDT Sunday 21 December 2014 (issued every 30 minutes, with the page automatically refreshed every 10 minutes)

About weather observations | Map of weather stations | Latest weather observations for SA | Other Formats
Station Details ID: 022841 Name: KINGSCOTE AERO Lat: -35.71 Lon: 137.52 Height: 6.23 m
Data from the previous 72 hours. | See also: Recent months at Kingscote
Date/Time
CDT
Temp
°C
App
Temp
°C
Dew
Point
Rel
Hum
%
Delta-T
°C
Wind Press
QNH
hPa
Press
MSL
hPa
Rain
since 9 am
mm
Dir
 
Spd
km/h
Gust
km/h
Spd
kts
Gust
kts
21/10:30am 24.6 22.1 16.1 59 5.2 SSE 24 30 13 16 1012.8 1012.8 0.0
21/10:00am 24.4 22.0 14.5 54 5.9 S 20 30 11 16 1012.8 1012.8 0.0
21/09:30am 24.1 22.2 14.2 54 5.8 S 17 22 9 12 1012.5 1012.5 0.0
21/09:00am 22.2 19.8 14.3 61 4.6 SSW 20 26 11 14 1012.3 1012.3 0.0
21/08:30am 20.6 22.2 14.9 70 3.4 CALM 0 0 0 0 1011.6 1011.6 0.0
21/08:00am 17.2 18.8 14.8 86 1.4 CALM 0 0 0 0 1011.5 1011.5 0.0
21/07:30am 14.2 15.3 13.6 96 0.3 CALM 0 0 0 0 1011.2 1011.2 0.0
21/07:00am 11.6 11.9 11.0 96 0.3 CALM 0 0 0 0 1011.2 1011.2 0.0
21/06:48am 11.3 11.5 10.7 96 0.3 CALM 0 0 0 0 1011.3 1011.3 0.0
21/06:30am 10.4 10.4 9.8 96 0.3 CALM 0 0 0 0 1011.1 1011.1 0.0
21/06:16am 10.1 10.0 9.3 95 0.4 CALM 0 0 0 0 1011.1 1011.1 0.0
21/06:07am 10.4 10.4 9.8 96 0.3 CALM 0 0 0 0 1011.0 1011.0 0.0
21/06:00am 10.4 10.4 9.8 96 0.3 CALM 0 0 0 0 1011.0 1011.0 0.0
21/05:34am 10.1 8.8 9.3 95 0.4 W 6 7 3 4 1011.3 1011.3 0.0
21/05:30am 10.3 9.1 9.5 95 0.4 W 6 7 3 4 1011.3 1011.3 0.0
21/05:00am 10.6 8.9 9.8 95 0.4 W 9 9 5 5 1011.4 1011.4 0.0
21/04:30am 10.5 8.8 9.7 95 0.4 W 9 9 5 5 1011.4 1011.4 0.0
21/04:00am 11.0 9.7 10.1 94 0.5 W 7 9 4 5 1011.5 1011.5 0.0
21/03:30am 12.0 11.5 10.9 93 0.6 SSE 4 9 2 5 1011.4 1011.4 0.0
21/03:00am 13.4 11.7 12.6 95 0.4 ESE 13 17 7 9 1011.7 1011.7 0.0
21/02:30am 12.2 12.2 11.3 94 0.5 SSE 2 6 1 3 1012.4 1012.4 0.0
21/02:00am 11.6 10.5 10.7 94 0.5 S 7 9 4 5 1013.0 1013.0 0.0
21/01:30am 11.8 10.4 10.9 94 0.5 SSW 9 11 5 6 1013.7 1013.7 0.0
21/01:00am 11.9 10.1 11.0 94 0.5 SW 11 13 6 7 1013.9 1013.9 0.0
21/12:30am 12.1 10.9 10.3 89 0.9 S 7 7 4 4 1013.6 1013.6 0.0
21/12:00am 12.9 11.6 11.1 89 0.9 SSE 9 11 5 6 1013.9 1013.9 0.0
 
Date/Time
CDT
Temp
°C
App
Temp
°C
Dew
Point
Rel
Hum
%
Delta-T
°C
Wind Press
QNH
hPa
Press
MSL
hPa
Rain
since 9 am
mm
Dir
 
Spd
km/h
Gust
km/h
Spd
kts
Gust
kts
20/11:30pm 13.7 12.9 11.7 88 1.1 SSE 7 9 4 5 1014.1 1014.1 0.0
20/11:00pm 14.0 12.5 11.9 87 1.1 SSE 11 11 6 6 1014.4 1014.4 0.0
20/10:30pm 14.4 13.6 11.6 83 1.5 SSE 7 9 4 5 1014.9 1014.9 0.0
20/10:00pm 15.2 14.1 12.1 82 1.7 SSE 9 11 5 6 1015.1 1015.1 0.0
20/09:30pm 15.8 14.0 12.2 79 2.0 SE 13 15 7 8 1014.9 1014.9 0.0
20/09:00pm 16.5 14.4 12.3 76 2.3 SE 15 20 8 11 1015.1 1015.1 0.0
20/08:30pm 17.3 15.0 11.8 70 3.0 SE 15 20 8 11 1015.5 1015.5 0.0
20/08:00pm 18.4 15.3 11.7 65 3.7 SE 19 26 10 14 1015.4 1015.4 0.0
20/07:30pm 19.3 16.0 11.6 61 4.2 SE 20 26 11 14 1015.3 1015.3 0.0
20/07:00pm 20.3 15.8 11.5 57 4.9 SE 26 33 14 18 1014.9 1014.9 0.0
20/06:30pm 21.8 17.8 11.8 53 5.6 SE 24 32 13 17 1014.6 1014.6 0.0
20/06:00pm 22.1 19.0 12.1 53 5.6 SE 20 30 11 16 1014.8 1014.8 0.0
20/05:30pm 22.9 20.5 12.8 53 5.8 SE 17 24 9 13 1015.2 1015.2 0.0
20/05:00pm 22.8 19.7 12.1 51 6.1 SE 20 30 11 16 1015.3 1015.3 0.0
20/04:30pm 23.6 20.6 12.6 50 6.3 SE 20 30 11 16 1015.3 1015.3 0.0
20/04:00pm 24.1 21.1 12.7 49 6.6 E 20 32 11 17 1015.5 1015.5 0.0
20/03:30pm 24.1 21.1 12.4 48 6.7 E 20 30 11 16 1015.9 1015.9 0.0
20/03:00pm 23.4 20.4 12.4 50 6.3 E 20 30 11 16 1016.3 1016.3 0.0
20/02:30pm 22.9 20.5 12.5 52 5.9 E 17 28 9 15 1016.8 1016.8 0.0
20/02:00pm 23.4 20.7 13.0 52 6.0 ENE 19 26 10 14 1017.4 1017.4 0.0
20/01:30pm 22.7 19.8 12.3 52 5.9 ENE 19 28 10 15 1017.8 1017.8 0.0
20/01:00pm 22.2 19.2 11.9 52 5.8 E 19 28 10 15 1018.0 1018.0 0.0
20/12:30pm 22.5 19.6 12.2 52 5.8 ENE 19 28 10 15 1018.5 1018.5 0.0
20/12:00pm 21.5 18.5 11.8 54 5.4 E 19 28 10 15 1018.8 1018.8 0.0
20/11:30am 21.2 18.9 11.8 55 5.2 E 15 24 8 13 1019.0 1019.0 0.0
20/11:00am 21.2 19.1 11.2 53 5.5 E 13 28 7 15 1019.2 1019.2 0.0
20/10:30am 20.8 18.9 11.7 56 5.0 NE 13 20 7 11 1019.6 1019.6 0.0
20/10:00am 20.6 18.7 11.8 57 4.9 E 13 20 7 11 1019.8 1019.8 0.0
20/09:30am 19.4 17.4 11.4 60 4.4 ENE 13 20 7 11 1020.2 1020.2 0.0
20/09:00am 18.9 16.9 11.5 62 4.0 ENE 13 20 7 11 1020.2 1020.2 0.0
20/08:30am 18.0 15.9 11.1 64 3.7 E 13 20 7 11 1020.0 1020.0 0.0
20/08:00am 16.6 16.9 10.9 69 3.1 CALM 0 0 0 0 1019.8 1019.8 0.0
20/07:30am 12.6 12.6 9.8 83 1.4 CALM 0 0 0 0 1019.7 1019.7 0.0
20/07:00am 9.9 9.6 8.7 92 0.6 CALM 0 0 0 0 1019.7 1019.7 0.0
20/06:30am 8.3 7.7 7.4 94 0.4 CALM 0 0 0 0 1019.6 1019.6 0.0
20/06:00am 7.8 7.1 6.9 94 0.4 CALM 0 0 0 0 1019.4 1019.4 0.0
20/05:30am 8.0 7.3 7.1 94 0.4 CALM 0 0 0 0 1019.1 1019.1 0.0
20/05:00am 7.9 7.2 6.8 93 0.5 CALM 0 0 0 0 1018.9 1018.9 0.0
20/04:30am 8.0 7.3 6.8 92 0.6 CALM 0 0 0 0 1018.7 1018.7 0.0
20/04:00am 8.6 7.9 7.1 90 0.7 CALM 0 0 0 0 1018.6 1018.6 0.0
20/03:30am 9.4 8.9 7.7 89 0.8 CALM 0 0 0 0 1018.7 1018.7 0.0
20/03:00am 9.9 9.4 7.8 87 1.0 CALM 0 0 0 0 1018.8 1018.8 0.0
20/02:30am 10.8 10.4 8.4 85 1.2 CALM 0 0 0 0 1019.1 1019.1 0.0
20/02:00am 11.6 11.3 8.8 83 1.4 CALM 0 0 0 0 1019.7 1019.7 0.0
20/01:30am 11.8 11.6 9.0 83 1.4 CALM 0 0 0 0 1020.2 1020.2 0.0
20/01:00am 11.3 11.0 8.7 84 1.3 CALM 0 0 0 0 1020.6 1020.6 0.0
20/12:30am 10.9 10.5 8.3 84 1.3 CALM 0 0 0 0 1020.9 1020.9 0.0
20/12:00am 10.3 9.7 7.4 82 1.4 CALM 0 0 0 0 1021.0 1021.0 0.0
 
Date/Time
CDT
Temp
°C
App
Temp
°C
Dew
Point
Rel
Hum
%
Delta-T
°C
Wind Press
QNH
hPa
Press
MSL
hPa
Rain
since 9 am
mm
Dir
 
Spd
km/h
Gust
km/h
Spd
kts
Gust
kts
19/11:30pm 11.7 11.4 8.6 81 1.5 CALM 0 0 0 0 1021.2 1021.2 0.0
19/11:00pm 12.2 10.6 7.9 75 2.1 S 6 6 3 3 1021.5 1021.5 0.0
19/10:30pm 13.5 11.9 8.8 73 2.4 SSE 7 9 4 5 1021.5 1021.5 0.0
19/10:00pm 13.7 12.0 8.5 71 2.6 S 7 9 4 5 1021.5 1021.5 0.0
19/09:30pm 14.7 12.0 9.1 69 2.8 S 13 17 7 9 1021.6 1021.6 0.0
19/09:00pm 15.5 12.9 9.2 66 3.2 S 13 19 7 10 1021.4 1021.4 0.0
19/08:30pm 16.4 12.6 9.1 62 3.8 S 19 24 10 13 1021.2 1021.2 0.0
19/08:00pm 17.3 12.7 9.5 60 4.1 SSW 24 30 13 16 1021.0 1021.0 0.0
19/07:30pm 18.1 13.1 9.5 57 4.5 S 26 37 14 20 1021.0 1021.0 0.0
19/07:00pm 19.0 13.9 9.2 53 5.1 S 26 35 14 19 1020.8 1020.8 0.0
19/06:30pm 19.5 14.2 9.7 53 5.2 S 28 37 15 20 1020.5 1020.5 0.0
19/06:00pm 20.1 16.4 10.2 53 5.3 S 20 32 11 17 1020.4 1020.4 0.0
19/05:30pm 19.8 16.2 9.7 52 5.4 ESE 19 28 10 15 1020.3 1020.3 0.0
19/05:00pm 21.0 17.5 10.2 50 5.8 E 19 26 10 14 1020.3 1020.3 0.0
19/04:30pm 20.5 16.6 9.4 49 5.9 E 20 28 11 15 1020.4 1020.4 0.0
19/04:00pm 20.4 16.5 9.6 50 5.8 ENE 20 32 11 17 1020.5 1020.5 0.0
19/03:30pm 21.1 17.6 10.3 50 5.8 ENE 19 33 10 18 1020.6 1020.6 0.0
19/03:00pm 22.1 19.6 11.2 50 6.0 ENE 15 26 8 14 1020.6 1020.6 0.0
19/02:30pm 22.0 19.5 11.1 50 6.0 NNE 15 24 8 13 1020.6 1020.6 0.0
19/02:00pm 20.6 17.4 10.1 51 5.7 NE 17 28 9 15 1020.7 1020.7 0.0
19/01:30pm 21.0 17.3 9.6 48 6.1 NNE 19 28 10 15 1020.6 1020.6 0.0
19/01:00pm 21.4 18.6 8.7 44 6.7 NNE 13 24 7 13 1020.8 1020.8 0.0
19/12:30pm 22.3 19.9 6.9 37 7.9 W 9 17 5 9 1021.0 1021.0 0.0
19/12:00pm 21.2 18.3 6.7 39 7.3 SW 11 24 6 13 1021.2 1021.2 0.0
19/11:30am 19.7 16.6 7.1 44 6.4 S 13 20 7 11 1021.3 1021.3 0.0
19/11:00am 19.3 15.7 6.8 44 6.3 SSW 15 24 8 13 1021.3 1021.3 0.0
19/10:30am 20.1 17.7 7.1 43 6.6 SSE 9 15 5 8 1021.3 1021.3 0.0
19/10:00am 19.3 17.6 7.7 47 5.9 SSE 6 11 3 6 1021.1 1021.1 0.0
19/09:30am 17.3 14.8 8.4 56 4.5 SW 11 15 6 8 1020.9 1020.9 0.0
19/09:00am 17.1 14.1 7.7 54 4.7 SSW 13 20 7 11 1020.5 1020.5 0.0
19/08:30am 17.4 15.5 9.1 58 4.3 SSE 9 17 5 9 1020.2 1020.2 0.0
19/08:00am 15.3 13.8 9.2 67 3.1 WSW 7 11 4 6 1020.1 1020.1 0.0
19/07:30am 12.4 11.0 8.7 78 1.8 W 6 7 3 4 1019.7 1019.7 0.0
19/07:00am 9.5 8.9 7.4 87 1.0 CALM 0 0 0 0 1019.3 1019.3 0.0
19/06:30am 7.7 6.8 6.0 89 0.8 CALM 0 0 0 0 1019.0 1019.0 0.0
19/06:00am 7.8 6.9 6.1 89 0.8 CALM 0 0 0 0 1018.9 1018.9 0.0
19/05:30am 7.8 6.9 6.1 89 0.8 CALM 0 0 0 0 1018.7 1018.7 0.0
19/05:00am 7.9 6.6 6.2 89 0.8 W 2 6 1 3 1018.7 1018.7 0.0
19/04:30am 8.0 5.7 5.6 85 1.1 W 7 9 4 5 1018.5 1018.5 0.0
19/04:00am 8.7 7.5 6.3 85 1.1 W 2 6 1 3 1018.4 1018.4 0.0
19/03:30am 8.6 6.3 5.9 83 1.2 W 7 7 4 4 1018.4 1018.4 0.0
19/03:00am 9.0 7.0 6.3 83 1.2 WSW 6 7 3 4 1018.3 1018.3 0.0
19/02:30am 9.1 6.2 6.4 83 1.2 WSW 11 13 6 7 1018.5 1018.5 0.0
19/02:00am 9.7 7.1 6.2 79 1.6 WSW 9 11 5 6 1018.4 1018.4 0.0
19/01:30am 11.1 8.7 7.2 77 1.9 WSW 9 11 5 6 1018.6 1018.6 0.0
19/01:00am 11.1 8.8 7.6 79 1.7 W 9 11 5 6 1018.7 1018.7 0.0
19/12:30am 10.5 7.9 6.3 75 2.0 W 9 11 5 6 1018.6 1018.6 0.0
19/12:00am 10.8 7.9 6.4 74 2.1 W 11 13 6 7 1018.4 1018.4 0.0
 
Date/Time
CDT
Temp
°C
App
Temp
°C
Dew
Point
Rel
Hum
%
Delta-T
°C
Wind Press
QNH
hPa
Press
MSL
hPa
Rain
since 9 am
mm
Dir
 
Spd
km/h
Gust
km/h
Spd
kts
Gust
kts
18/11:30pm 11.5 9.0 6.4 71 2.4 W 9 11 5 6 1018.2 1018.2 0.0
18/11:00pm 10.9 7.9 5.9 71 2.3 W 11 11 6 6 1018.2 1018.2 0.0
18/10:30pm 11.9 9.2 5.5 65 3.0 WSW 9 9 5 5 1018.0 1018.0 0.0
18/10:00pm 12.2 9.1 5.6 64 3.1 WSW 11 11 6 6 1018.0 1018.0 0.0
18/09:30pm 13.1 10.1 5.8 61 3.4 SW 11 13 6 7 1017.6 1017.6 0.0
18/09:00pm 14.8 10.4 6.6 58 4.0 SW 19 26 10 14 1017.3 1017.3 0.0
18/08:30pm 15.9 12.1 7.4 57 4.2 SSW 17 26 9 14 1016.9 1016.9 0.0
18/08:00pm 16.3 10.8 5.9 50 5.0 SW 24 32 13 17 1016.6 1016.6 0.0
18/07:30pm 17.2 11.9 6.7 50 5.2 SSW 24 33 13 18 1016.2 1016.2 0.0
18/07:00pm 18.2 11.4 5.1 42 6.3 SSW 30 41 16 22 1015.7 1015.7 0.0
18/06:30pm 18.6 13.1 7.4 48 5.7 SSW 26 37 14 20 1015.1 1015.1 0.0
18/06:00pm 18.9 12.3 7.7 48 5.7 SSW 32 43 17 23 1014.8 1014.8 0.0
18/05:30pm 20.0 13.1 7.4 44 6.4 SSW 33 43 18 23 1014.4 1014.4 0.0
18/05:00pm 21.2 14.3 7.1 40 7.2 SSW 33 46 18 25 1014.1 1014.1 0.0
18/04:30pm 19.6 12.9 8.0 47 6.0 SSW 33 43 18 23 1013.8 1013.8 0.0
18/04:00pm 21.6 14.5 8.1 42 7.1 SSW 35 48 19 26 1013.6 1013.6 0.0
18/03:30pm 21.5 14.2 7.0 39 7.4 SW 35 46 19 25 1013.1 1013.1 0.0
18/03:19pm 22.4 15.3 6.2 35 8.2 SSW 33 59 18 32 1013.0 1013.0 0.0
18/03:00pm 20.8 13.8 6.0 38 7.4 SW 32 46 17 25 1013.0 1013.0 0.0
18/02:30pm 21.7 14.7 8.6 43 6.9 SSW 35 48 19 26 1012.8 1012.8 0.0
18/02:00pm 20.3 13.3 8.6 47 6.1 SSW 35 50 19 27 1012.5 1012.5 0.0
18/01:59pm 20.6 13.7 8.9 47 6.2 SSW 35 50 19 27 1012.6 1012.6 0.0
18/01:30pm 21.6 14.9 8.1 42 7.1 SW 33 48 18 26 1012.3 1012.3 0.0
18/01:24pm 21.9 14.8 8.1 41 7.2 SW 35 48 19 26 1012.2 1012.2 0.0
18/01:04pm 21.6 15.4 9.2 45 6.6 SSW 32 50 17 27 1012.3 1012.3 0.0
18/01:00pm 21.2 14.8 9.4 47 6.3 SSW 33 48 18 26 1012.2 1012.2 0.0
18/12:54pm 20.4 14.0 8.7 47 6.1 SW 32 48 17 26 1012.2 1012.2 0.0
18/12:30pm 20.7 14.1 8.4 45 6.4 SW 33 46 18 25 1012.0 1012.0 0.0
18/12:00pm 21.2 14.9 9.1 46 6.4 SW 32 46 17 25 1011.8 1011.8 0.0
18/11:44am 20.7 14.1 7.7 43 6.7 SW 32 50 17 27 1011.9 1011.9 0.0
18/11:30am 20.9 13.8 7.9 43 6.7 SW 35 52 19 28 1011.5 1011.5 0.0
18/11:13am 20.9 14.0 8.9 46 6.3 SW 35 54 19 29 1011.6 1011.6 0.0
18/11:00am 21.3 14.0 8.9 45 6.6 SW 37 54 20 29 1011.4 1011.4 0.0

Other Formats:

Comma delimited format used in spreadsheet applications
http://www.bom.gov.au/fwo/IDS60801/IDS60801.95807.axf

JavaScript Object Notation format (JSON) in row-major order
http://www.bom.gov.au/fwo/IDS60801/IDS60801.95807.json